createdAt,value
2022-10-30T00:01:40.325Z,81.27
2022-10-30T00:04:10.073Z,81.36
2022-10-30T00:06:39.112Z,81.40
2022-10-30T00:09:08.886Z,81.34
2022-10-30T00:11:37.821Z,81.25
2022-10-30T00:14:07.395Z,81.15
2022-10-30T00:16:36.335Z,81.13
2022-10-30T00:19:05.569Z,81.13
2022-10-30T00:21:36.001Z,81.14
2022-10-30T00:24:07.903Z,81.06
2022-10-30T00:26:37.794Z,80.95
2022-10-30T00:29:07.386Z,80.89
2022-10-30T00:31:38.017Z,80.67
2022-10-30T00:34:07.045Z,80.46
2022-10-30T00:36:39.515Z,80.17
2022-10-30T00:39:08.277Z,80.05
2022-10-30T00:41:39.206Z,79.92
2022-10-30T00:44:47.332Z,79.69
2022-10-30T00:47:28.431Z,79.45
2022-10-30T00:50:08.941Z,79.00
2022-10-30T00:52:46.642Z,78.58
2022-10-30T00:55:19.895Z,78.39
2022-10-30T00:57:50.702Z,78.31
2022-10-30T01:00:22.962Z,78.12
2022-10-30T01:02:52.857Z,77.92
2022-10-30T01:05:23.225Z,77.69
2022-10-30T01:07:55.171Z,77.43
2022-10-30T01:10:23.831Z,77.28
2022-10-30T01:12:54.094Z,77.10
2022-10-30T01:15:33.569Z,77.07
2022-10-30T01:18:25.822Z,76.93
2022-10-30T01:21:21.781Z,76.92
2022-10-30T01:24:14.236Z,76.87
2022-10-30T01:27:08.372Z,76.87
2022-10-30T01:29:46.490Z,76.74
2022-10-30T01:32:39.289Z,76.50
2022-10-30T01:35:20.870Z,76.53
2022-10-30T01:38:04.129Z,76.46
2022-10-30T01:40:33.806Z,76.54
2022-10-30T01:43:02.706Z,76.42
2022-10-30T01:45:44.924Z,76.40
2022-10-30T01:49:01.952Z,76.42
2022-10-30T01:52:04.700Z,76.40
2022-10-30T01:55:02.166Z,76.31
2022-10-30T01:57:55.862Z,76.35
2022-10-30T02:00:25.420Z,76.31
2022-10-30T02:02:54.941Z,76.32
2022-10-30T02:05:44.765Z,76.24
2022-10-30T02:08:13.609Z,76.30
2022-10-30T02:10:44.812Z,76.34
2022-10-30T02:13:14.792Z,76.30
2022-10-30T02:15:46.321Z,76.41
2022-10-30T02:18:15.812Z,76.38
2022-10-30T02:20:44.297Z,76.45
2022-10-30T02:23:15.467Z,76.55
2022-10-30T02:25:47.604Z,76.56
2022-10-30T02:28:18.339Z,76.57
2022-10-30T02:30:49.498Z,76.60
2022-10-30T02:33:20.405Z,76.65
2022-10-30T02:35:52.481Z,76.74
2022-10-30T02:38:22.144Z,76.74
2022-10-30T02:40:53.102Z,76.74
2022-10-30T02:43:22.057Z,76.83
2022-10-30T02:45:52.672Z,76.85
2022-10-30T02:48:23.866Z,76.85
2022-10-30T02:50:53.604Z,76.95
2022-10-30T02:53:23.758Z,77.03
2022-10-30T02:55:52.872Z,76.97
2022-10-30T02:58:23.112Z,77.08
2022-10-30T03:00:52.735Z,77.11
2022-10-30T03:03:24.110Z,77.24
2022-10-30T03:05:53.199Z,77.28
2022-10-30T03:08:23.420Z,77.27
2022-10-30T03:10:52.695Z,77.24
2022-10-30T03:13:21.962Z,77.20
2022-10-30T03:15:51.093Z,77.27
2022-10-30T03:18:20.748Z,77.21
2022-10-30T03:20:49.848Z,77.08
2022-10-30T03:23:19.003Z,77.11
2022-10-30T03:25:47.956Z,77.13
2022-10-30T03:28:16.869Z,77.16
2022-10-30T03:30:46.205Z,77.20
2022-10-30T03:33:16.307Z,77.32
2022-10-30T03:35:45.401Z,77.31
2022-10-30T03:38:15.142Z,77.39
2022-10-30T03:40:44.601Z,77.37
2022-10-30T03:43:13.723Z,77.42
2022-10-30T03:45:49.588Z,77.55
2022-10-30T03:48:22.278Z,77.66
2022-10-30T03:50:57.917Z,77.71
2022-10-30T03:53:28.336Z,77.76
2022-10-30T03:56:00.500Z,77.79
2022-10-30T03:58:30.319Z,77.88
2022-10-30T04:01:04.527Z,77.89
2022-10-30T04:03:37.374Z,77.78
2022-10-30T04:06:09.248Z,77.75
2022-10-30T04:08:40.037Z,77.67
2022-10-30T04:11:11.628Z,77.50
2022-10-30T04:13:42.978Z,77.45
2022-10-30T04:16:13.491Z,77.47
2022-10-30T04:18:43.416Z,77.22
2022-10-30T04:21:15.126Z,76.87
2022-10-30T04:23:45.419Z,76.71
2022-10-30T04:26:15.573Z,76.63
2022-10-30T04:28:48.257Z,76.60
2022-10-30T04:31:18.068Z,76.44
2022-10-30T04:33:48.306Z,76.11
2022-10-30T04:36:18.353Z,76.00
2022-10-30T04:38:47.831Z,75.01
2022-10-30T04:41:17.788Z,74.76
2022-10-30T04:43:51.245Z,74.72
2022-10-30T04:46:20.445Z,74.71
2022-10-30T04:48:50.666Z,74.79
2022-10-30T04:51:21.425Z,74.47
2022-10-30T04:53:50.355Z,73.93
2022-10-30T04:56:19.786Z,73.79
2022-10-30T04:58:50.020Z,73.72
2022-10-30T05:01:20.063Z,73.73
2022-10-30T05:03:52.044Z,73.76
2022-10-30T05:06:25.250Z,73.73
2022-10-30T05:08:56.008Z,73.45
2022-10-30T05:11:30.992Z,73.23
2022-10-30T05:14:00.902Z,72.85
2022-10-30T05:16:31.693Z,72.59
2022-10-30T05:19:03.017Z,72.53
2022-10-30T05:21:33.327Z,72.25
2022-10-30T05:24:03.692Z,72.03
2022-10-30T05:26:35.997Z,71.66
2022-10-30T05:29:06.377Z,71.24
2022-10-30T05:31:35.737Z,71.14
2022-10-30T05:34:09.111Z,71.06
2022-10-30T05:36:40.233Z,70.78
2022-10-30T05:39:10.887Z,70.76
2022-10-30T05:41:42.185Z,70.54
2022-10-30T05:44:12.261Z,70.13
2022-10-30T05:46:43.550Z,69.75
2022-10-30T05:49:27.812Z,69.81
2022-10-30T05:51:58.654Z,69.03
2022-10-30T05:54:28.375Z,68.93
2022-10-30T05:57:02.449Z,68.91
2022-10-30T05:59:31.966Z,68.78
2022-10-30T06:02:00.795Z,68.56
2022-10-30T06:04:31.708Z,68.77
2022-10-30T06:07:02.054Z,69.09
2022-10-30T06:09:31.082Z,69.22
2022-10-30T06:12:02.243Z,69.29
2022-10-30T06:14:37.188Z,69.01
2022-10-30T06:17:08.182Z,68.56
2022-10-30T06:19:54.356Z,67.98
2022-10-30T06:22:31.338Z,68.04
2022-10-30T06:25:03.054Z,67.71
2022-10-30T06:27:36.944Z,67.71
2022-10-30T06:30:08.352Z,67.62
2022-10-30T06:32:39.636Z,66.80
2022-10-30T06:35:10.706Z,65.86
2022-10-30T06:37:48.423Z,65.31
2022-10-30T06:40:18.168Z,65.24
2022-10-30T06:42:51.901Z,64.61
2022-10-30T06:45:26.136Z,64.23
2022-10-30T06:47:56.671Z,63.70
2022-10-30T06:50:26.351Z,63.65
2022-10-30T06:52:57.107Z,63.62
2022-10-30T06:55:27.871Z,63.65
2022-10-30T06:58:16.125Z,63.52
2022-10-30T07:00:47.182Z,63.34
2022-10-30T07:03:34.453Z,63.41
2022-10-30T07:06:04.503Z,63.62
2022-10-30T07:08:34.585Z,63.71
2022-10-30T07:11:05.578Z,63.83
2022-10-30T07:13:53.339Z,63.69
2022-10-30T07:16:39.409Z,62.98
2022-10-30T07:19:09.370Z,62.51
2022-10-30T07:21:40.484Z,62.24
2022-10-30T07:24:10.431Z,62.49
2022-10-30T07:26:48.492Z,62.69
2022-10-30T07:29:26.128Z,62.56
2022-10-30T07:32:10.827Z,62.52
2022-10-30T07:34:47.668Z,62.04
2022-10-30T07:37:36.430Z,61.59
2022-10-30T07:40:13.189Z,61.73
2022-10-30T07:42:47.852Z,61.63
2022-10-30T07:45:31.589Z,61.83
2022-10-30T07:48:19.394Z,61.91
2022-10-30T07:50:51.841Z,62.25
2022-10-30T07:53:22.415Z,62.28
2022-10-30T07:55:52.074Z,62.22
2022-10-30T07:58:45.201Z,62.33
2022-10-30T08:01:14.432Z,62.46
2022-10-30T08:03:45.651Z,62.65
2022-10-30T08:06:22.960Z,62.73
2022-10-30T08:08:52.547Z,62.55
2022-10-30T08:11:30.768Z,62.61
2022-10-30T08:14:01.490Z,62.88
2022-10-30T08:16:31.693Z,62.88
2022-10-30T08:19:01.238Z,62.84
2022-10-30T08:21:30.962Z,62.87
2022-10-30T08:24:02.656Z,63.08
2022-10-30T08:26:35.399Z,62.98
2022-10-30T08:29:05.094Z,63.06
2022-10-30T08:31:35.446Z,62.72
2022-10-30T08:34:05.276Z,62.93
2022-10-30T08:36:38.944Z,63.08
2022-10-30T08:39:08.239Z,63.12
2022-10-30T08:41:49.755Z,63.06
2022-10-30T08:44:22.210Z,62.77
2022-10-30T08:47:09.696Z,62.68
2022-10-30T08:49:41.451Z,62.63
2022-10-30T08:52:10.878Z,62.54
2022-10-30T08:54:42.728Z,62.24
2022-10-30T08:57:13.452Z,62.11
2022-10-30T08:59:42.663Z,62.16
2022-10-30T09:02:14.741Z,62.06
2022-10-30T09:05:02.753Z,62.03
2022-10-30T09:07:43.996Z,61.87
2022-10-30T09:10:20.161Z,61.94
2022-10-30T09:12:57.211Z,62.04
2022-10-30T09:15:27.821Z,61.88
2022-10-30T09:18:01.496Z,62.01
2022-10-30T09:20:33.414Z,62.14
2022-10-30T09:23:03.363Z,61.95
2022-10-30T09:25:33.126Z,61.64
2022-10-30T09:28:16.656Z,61.86
2022-10-30T09:30:52.184Z,62.20
2022-10-30T09:33:21.827Z,62.22
2022-10-30T09:35:59.441Z,62.36
2022-10-30T09:38:30.252Z,62.11
2022-10-30T09:41:17.516Z,61.76
2022-10-30T09:44:08.748Z,61.42
2022-10-30T09:46:54.505Z,61.28
2022-10-30T09:49:44.077Z,61.54
2022-10-30T09:52:29.698Z,61.52
2022-10-30T09:55:25.891Z,61.22
2022-10-30T09:58:19.488Z,61.54
2022-10-30T10:01:13.823Z,61.56
2022-10-30T10:04:02.188Z,61.60
2022-10-30T10:06:34.217Z,61.63
2022-10-30T10:09:10.077Z,61.23
2022-10-30T10:12:09.977Z,61.43
2022-10-30T10:14:45.097Z,61.65
2022-10-30T10:17:20.134Z,61.30
2022-10-30T10:19:59.974Z,61.44
2022-10-30T10:22:43.099Z,61.51
2022-10-30T10:25:15.112Z,61.47
2022-10-30T10:28:02.184Z,61.52
2022-10-30T10:30:43.086Z,61.30
2022-10-30T10:33:25.836Z,60.91
2022-10-30T10:36:03.335Z,61.24
2022-10-30T10:38:46.971Z,61.03
2022-10-30T10:41:53.851Z,60.96
2022-10-30T10:44:33.144Z,61.14
2022-10-30T10:47:16.060Z,61.03
2022-10-30T10:50:22.219Z,61.06
2022-10-30T10:53:02.225Z,60.59
2022-10-30T10:55:36.440Z,60.66
2022-10-30T10:58:30.009Z,60.33
2022-10-30T11:00:59.085Z,60.44
2022-10-30T11:03:33.488Z,60.61
2022-10-30T11:06:27.742Z,60.41
2022-10-30T11:09:19.446Z,60.54
2022-10-30T11:11:49.574Z,60.51
2022-10-30T11:14:23.258Z,60.57
2022-10-30T11:17:15.427Z,60.68
2022-10-30T11:19:47.875Z,60.54
2022-10-30T11:22:24.301Z,60.30
2022-10-30T11:24:53.373Z,60.17
2022-10-30T11:27:28.151Z,60.47
2022-10-30T11:30:05.516Z,60.59
2022-10-30T11:32:35.143Z,60.28
2022-10-30T11:35:12.542Z,59.81
2022-10-30T11:37:42.929Z,59.82
2022-10-30T11:40:23.224Z,59.49
2022-10-30T11:43:01.293Z,59.65
2022-10-30T11:45:41.429Z,59.69
2022-10-30T11:48:21.955Z,59.53
2022-10-30T11:50:52.978Z,59.24
2022-10-30T11:53:38.139Z,59.07
2022-10-30T11:56:17.291Z,58.80
2022-10-30T11:58:52.403Z,58.75
2022-10-30T12:01:35.821Z,58.59
2022-10-30T12:04:22.846Z,58.31
2022-10-30T12:07:16.417Z,58.32
2022-10-30T12:09:49.670Z,58.35
2022-10-30T12:12:34.073Z,58.16
2022-10-30T12:15:17.724Z,58.07
2022-10-30T12:18:01.851Z,58.04
2022-10-30T12:20:32.949Z,58.15
2022-10-30T12:23:22.283Z,58.24
2022-10-30T12:25:57.415Z,58.45
2022-10-30T12:28:28.637Z,58.21
2022-10-30T12:31:08.789Z,58.36
2022-10-30T12:33:52.364Z,58.09
2022-10-30T12:36:26.958Z,58.14
2022-10-30T12:39:06.979Z,58.19
2022-10-30T12:41:45.124Z,58.23
2022-10-30T12:44:27.938Z,58.62
2022-10-30T12:47:22.312Z,58.33
2022-10-30T12:49:52.276Z,58.60
2022-10-30T12:52:47.044Z,58.63
2022-10-30T12:55:39.434Z,58.68
2022-10-30T12:59:03.522Z,58.98
2022-10-30T13:01:37.136Z,59.00
2022-10-30T13:04:25.479Z,59.15
2022-10-30T13:07:41.856Z,59.42
2022-10-30T13:10:36.604Z,59.75
2022-10-30T13:13:34.706Z,59.80
2022-10-30T13:16:10.335Z,59.97
2022-10-30T13:18:39.614Z,60.00
2022-10-30T13:21:31.976Z,60.14
2022-10-30T13:24:19.658Z,60.38
2022-10-30T13:26:54.335Z,60.48
2022-10-30T13:29:50.683Z,60.79
2022-10-30T13:32:40.451Z,60.58
2022-10-30T13:35:41.959Z,60.63
2022-10-30T13:38:42.649Z,60.72
2022-10-30T13:41:44.688Z,60.80
2022-10-30T13:44:44.993Z,60.94
2022-10-30T13:47:44.059Z,61.20
2022-10-30T13:50:31.835Z,61.38
2022-10-30T13:53:02.872Z,61.48
2022-10-30T13:55:33.948Z,61.29
2022-10-30T13:58:16.990Z,61.31
2022-10-30T14:01:09.075Z,61.11
2022-10-30T14:03:55.391Z,60.12
2022-10-30T14:07:10.943Z,60.03
2022-10-30T14:09:45.793Z,60.16
2022-10-30T14:12:52.388Z,60.03
2022-10-30T14:15:33.931Z,59.87
2022-10-30T14:18:26.908Z,59.64
2022-10-30T14:20:57.629Z,59.74
2022-10-30T14:23:36.196Z,59.47
2022-10-30T14:26:13.811Z,59.62
2022-10-30T14:28:44.956Z,59.15
2022-10-30T14:31:18.598Z,58.71
2022-10-30T14:33:51.593Z,58.18
2022-10-30T14:36:36.534Z,57.89
2022-10-30T14:39:14.514Z,58.03
2022-10-30T14:42:28.517Z,57.65
2022-10-30T14:45:02.704Z,57.71
2022-10-30T14:48:15.053Z,57.51
2022-10-30T14:51:09.769Z,57.37
2022-10-30T14:54:07.016Z,57.41
2022-10-30T14:56:49.737Z,57.47
2022-10-30T14:59:23.682Z,57.71
2022-10-30T15:02:16.153Z,57.98
2022-10-30T15:05:21.737Z,58.19
2022-10-30T15:07:59.838Z,58.53
2022-10-30T15:10:36.088Z,58.60
2022-10-30T15:13:19.439Z,58.46
2022-10-30T15:16:08.579Z,58.44
2022-10-30T15:18:37.649Z,58.41
2022-10-30T15:21:08.507Z,57.89
2022-10-30T15:23:38.289Z,57.90
2022-10-30T15:26:11.786Z,57.83
2022-10-30T15:28:42.081Z,57.83
2022-10-30T15:31:28.330Z,57.89
2022-10-30T15:33:58.101Z,57.80
2022-10-30T15:36:39.061Z,57.92
2022-10-30T15:39:17.421Z,58.06
2022-10-30T15:42:00.381Z,57.88
2022-10-30T15:44:32.811Z,58.04
2022-10-30T15:47:04.489Z,58.18
2022-10-30T15:49:38.814Z,58.33
2022-10-30T15:52:21.535Z,58.27
2022-10-30T15:54:55.782Z,58.44
2022-10-30T15:57:57.357Z,58.48
2022-10-30T16:00:06.165Z,58.58
2022-10-30T16:02:36.469Z,58.76
2022-10-30T16:05:23.408Z,58.92
2022-10-30T16:07:59.743Z,58.99
2022-10-30T16:10:35.886Z,59.20
2022-10-30T16:13:05.409Z,59.35
2022-10-30T16:15:36.088Z,59.43
2022-10-30T16:18:15.219Z,59.46
2022-10-30T16:20:47.777Z,59.45
2022-10-30T16:23:18.296Z,59.50
2022-10-30T16:25:48.383Z,59.60
2022-10-30T16:28:37.874Z,59.72
2022-10-30T16:31:08.355Z,59.71
2022-10-30T16:33:40.501Z,59.86
2022-10-30T16:36:14.707Z,60.00
2022-10-30T16:38:46.612Z,60.29
2022-10-30T16:41:16.484Z,60.56
2022-10-30T16:43:50.986Z,60.91
2022-10-30T16:46:53.014Z,61.20
2022-10-30T16:49:27.862Z,61.40
2022-10-30T16:52:04.884Z,61.72
2022-10-30T16:54:40.774Z,61.94
2022-10-30T16:57:23.562Z,62.04
2022-10-30T16:59:53.604Z,62.19
2022-10-30T17:02:27.621Z,62.29
2022-10-30T17:05:10.108Z,62.33
2022-10-30T17:07:39.807Z,62.45
2022-10-30T17:10:38.525Z,62.49
2022-10-30T17:13:41.458Z,62.66
2022-10-30T17:16:25.696Z,62.79
2022-10-30T17:19:02.873Z,62.91
2022-10-30T17:21:40.983Z,63.04
2022-10-30T17:24:22.510Z,63.13
2022-10-30T17:26:57.588Z,63.21
2022-10-30T17:29:44.256Z,63.21
2022-10-30T17:32:23.751Z,63.20
2022-10-30T17:35:10.748Z,63.26
2022-10-30T17:37:39.597Z,63.27
2022-10-30T17:40:10.574Z,63.28
2022-10-30T17:42:39.934Z,63.26
2022-10-30T17:45:13.747Z,63.26
2022-10-30T17:47:44.512Z,63.29
2022-10-30T17:50:15.259Z,63.38
2022-10-30T17:52:46.077Z,63.42
2022-10-30T17:55:23.852Z,63.44
2022-10-30T17:57:53.587Z,63.49
2022-10-30T18:00:23.297Z,63.51
2022-10-30T18:02:53.442Z,63.59
2022-10-30T18:05:25.802Z,63.52
2022-10-30T18:07:56.236Z,63.58
2022-10-30T18:10:26.780Z,63.65
2022-10-30T18:12:55.956Z,63.56
2022-10-30T18:15:32.866Z,63.59
2022-10-30T18:18:04.297Z,63.46
2022-10-30T18:20:34.661Z,63.50
2022-10-30T18:23:12.773Z,63.51
2022-10-30T18:25:43.828Z,63.49
2022-10-30T18:28:14.662Z,63.61
2022-10-30T18:30:53.736Z,63.62
2022-10-30T18:33:22.774Z,63.72
2022-10-30T18:35:56.954Z,63.79
2022-10-30T18:38:28.521Z,63.83
2022-10-30T18:40:59.397Z,63.89
2022-10-30T18:43:28.238Z,63.96
2022-10-30T18:45:57.766Z,64.13
2022-10-30T18:48:29.168Z,64.24
2022-10-30T18:50:58.348Z,64.26
2022-10-30T18:53:32.729Z,64.29
2022-10-30T18:55:59.300Z,64.30
2022-10-30T18:58:28.650Z,64.38
2022-10-30T19:01:11.474Z,64.37
2022-10-30T19:03:31.401Z,64.47
2022-10-30T19:06:00.811Z,64.60
2022-10-30T19:08:29.992Z,64.62
2022-10-30T19:11:10.712Z,64.66
2022-10-30T19:13:42.719Z,64.74
2022-10-30T19:16:15.047Z,64.90
2022-10-30T19:18:44.979Z,65.00
2022-10-30T19:21:22.676Z,65.12
2022-10-30T19:23:56.225Z,65.24
2022-10-30T19:26:26.089Z,65.28
2022-10-30T19:28:56.629Z,65.45
2022-10-30T19:31:26.226Z,65.59
2022-10-30T19:33:57.872Z,65.71
2022-10-30T19:36:36.905Z,65.84
2022-10-30T19:39:16.015Z,65.91
2022-10-30T19:41:46.548Z,66.05
2022-10-30T19:44:17.726Z,66.14
2022-10-30T19:46:47.345Z,66.16
2022-10-30T19:49:20.396Z,66.16
2022-10-30T19:51:49.660Z,66.16
2022-10-30T19:54:18.452Z,66.20
2022-10-30T19:56:47.786Z,66.28
2022-10-30T19:59:18.624Z,66.21
2022-10-30T20:01:48.855Z,66.26
2022-10-30T20:04:18.782Z,66.32
2022-10-30T20:06:49.070Z,66.43
2022-10-30T20:09:18.201Z,66.46
2022-10-30T20:11:48.488Z,66.48
2022-10-30T20:14:17.728Z,66.54
2022-10-30T20:16:48.407Z,66.57
2022-10-30T20:19:30.452Z,66.57
2022-10-30T20:22:00.477Z,66.60
2022-10-30T20:24:30.445Z,66.62
2022-10-30T20:26:59.603Z,66.74
2022-10-30T20:29:28.927Z,66.83
2022-10-30T20:31:57.799Z,66.94
2022-10-30T20:34:28.893Z,66.99
2022-10-30T20:36:59.449Z,67.02
2022-10-30T20:39:28.023Z,67.10
2022-10-30T20:41:58.798Z,67.10
2022-10-30T20:44:28.321Z,67.12
2022-10-30T20:46:57.861Z,67.16
2022-10-30T20:49:40.244Z,67.18
2022-10-30T20:52:09.477Z,67.28
2022-10-30T20:54:39.189Z,67.36
2022-10-30T20:57:08.510Z,67.45
2022-10-30T20:59:38.761Z,67.49
2022-10-30T21:02:11.570Z,67.55
2022-10-30T21:04:43.108Z,67.60
2022-10-30T21:07:13.718Z,67.75
2022-10-30T21:09:43.154Z,67.80
2022-10-30T21:12:13.048Z,67.89
2022-10-30T21:14:43.239Z,67.92
2022-10-30T21:17:12.915Z,68.08
2022-10-30T21:19:42.265Z,68.15
2022-10-30T21:22:11.286Z,68.20
2022-10-30T21:24:40.374Z,68.25
2022-10-30T21:27:10.169Z,68.34
2022-10-30T21:29:40.052Z,68.41
2022-10-30T21:32:10.228Z,68.56
2022-10-30T21:34:39.208Z,68.57
2022-10-30T21:37:08.340Z,68.67
2022-10-30T21:39:37.809Z,68.78
2022-10-30T21:42:08.477Z,68.84
2022-10-30T21:44:37.564Z,68.85
2022-10-30T21:47:06.659Z,68.90
2022-10-30T21:49:35.776Z,68.97
2022-10-30T21:52:06.366Z,69.07
2022-10-30T21:54:36.482Z,69.10
2022-10-30T21:57:06.574Z,69.18
2022-10-30T21:59:35.921Z,69.31
2022-10-30T22:02:05.721Z,69.40
2022-10-30T22:04:34.935Z,69.52
2022-10-30T22:07:03.860Z,69.61
2022-10-30T22:09:34.317Z,69.73
2022-10-30T22:12:05.429Z,69.76
2022-10-30T22:14:34.911Z,69.84
2022-10-30T22:17:03.575Z,69.93
2022-10-30T22:19:34.175Z,70.05
2022-10-30T22:22:04.390Z,70.16
2022-10-30T22:24:34.324Z,70.19
2022-10-30T22:27:04.075Z,70.34
2022-10-30T22:29:34.188Z,70.52
2022-10-30T22:32:03.830Z,70.60
2022-10-30T22:34:33.189Z,70.73
2022-10-30T22:37:02.148Z,70.90
2022-10-30T22:39:32.224Z,71.01
2022-10-30T22:42:01.151Z,71.07
2022-10-30T22:44:29.979Z,71.13
2022-10-30T22:46:58.665Z,71.27
2022-10-30T22:49:27.997Z,71.38
2022-10-30T22:51:56.794Z,71.53
2022-10-30T22:54:26.980Z,71.68
2022-10-30T22:56:56.473Z,71.84
2022-10-30T22:59:27.528Z,71.94
2022-10-30T23:01:57.384Z,72.02
2022-10-30T23:04:27.181Z,72.12
2022-10-30T23:06:55.947Z,72.20
2022-10-30T23:09:25.457Z,72.35
2022-10-30T23:11:54.153Z,72.46
2022-10-30T23:14:24.624Z,72.53
2022-10-30T23:16:53.807Z,72.62
2022-10-30T23:19:23.652Z,72.68
2022-10-30T23:21:57.254Z,72.84
2022-10-30T23:24:26.453Z,72.95
2022-10-30T23:26:56.207Z,73.08
2022-10-30T23:29:25.859Z,73.17
2022-10-30T23:31:55.167Z,73.33
2022-10-30T23:34:25.215Z,73.43
2022-10-30T23:36:59.131Z,73.54
2022-10-30T23:39:28.355Z,73.59
2022-10-30T23:41:57.340Z,73.72
2022-10-30T23:44:28.467Z,73.82
2022-10-30T23:46:58.644Z,73.96
2022-10-30T23:49:33.093Z,74.15
2022-10-30T23:51:58.740Z,74.25
2022-10-30T23:54:29.069Z,74.35
2022-10-30T23:56:57.991Z,74.50
2022-10-30T23:59:27.481Z,74.75
